sensor_id;sensor_type;location;lat;lon;timestamp;P1;durP1;ratioP1;P2;durP2;ratioP2
54167;SDS011;68429;50.958;3.592;2023-12-14T00:01:59;98.18;;;40.20;;
54167;SDS011;68429;50.958;3.592;2023-12-14T00:04:25;105.10;;;40.97;;
54167;SDS011;68429;50.958;3.592;2023-12-14T00:06:51;96.53;;;41.67;;
54167;SDS011;68429;50.958;3.592;2023-12-14T00:09:16;99.28;;;41.70;;
54167;SDS011;68429;50.958;3.592;2023-12-14T00:11:42;109.75;;;41.47;;
54167;SDS011;68429;50.958;3.592;2023-12-14T00:14:07;101.45;;;40.05;;
54167;SDS011;68429;50.958;3.592;2023-12-14T00:16:33;106.88;;;41.88;;
54167;SDS011;68429;50.958;3.592;2023-12-14T00:18:59;104.47;;;42.45;;
54167;SDS011;68429;50.958;3.592;2023-12-14T00:21:24;100.60;;;41.40;;
54167;SDS011;68429;50.958;3.592;2023-12-14T00:23:50;96.00;;;40.85;;
54167;SDS011;68429;50.958;3.592;2023-12-14T00:26:15;105.70;;;40.97;;
54167;SDS011;68429;50.958;3.592;2023-12-14T00:28:42;101.15;;;42.13;;
54167;SDS011;68429;50.958;3.592;2023-12-14T00:31:08;97.28;;;40.70;;
54167;SDS011;68429;50.958;3.592;2023-12-14T00:33:35;96.50;;;41.17;;
54167;SDS011;68429;50.958;3.592;2023-12-14T00:36:01;107.25;;;42.63;;
54167;SDS011;68429;50.958;3.592;2023-12-14T00:38:27;107.43;;;45.15;;
54167;SDS011;68429;50.958;3.592;2023-12-14T00:40:53;101.43;;;42.20;;
54167;SDS011;68429;50.958;3.592;2023-12-14T00:43:18;106.82;;;43.78;;
54167;SDS011;68429;50.958;3.592;2023-12-14T00:45:44;108.35;;;44.28;;
54167;SDS011;68429;50.958;3.592;2023-12-14T00:48:10;119.43;;;44.78;;
54167;SDS011;68429;50.958;3.592;2023-12-14T00:50:36;108.75;;;44.72;;
54167;SDS011;68429;50.958;3.592;2023-12-14T00:53:02;109.68;;;42.72;;
54167;SDS011;68429;50.958;3.592;2023-12-14T00:55:27;94.28;;;42.88;;
54167;SDS011;68429;50.958;3.592;2023-12-14T00:57:53;96.93;;;41.03;;
54167;SDS011;68429;50.958;3.592;2023-12-14T01:00:18;90.05;;;43.15;;
54167;SDS011;68429;50.958;3.592;2023-12-14T01:02:44;80.97;;;39.85;;
54167;SDS011;68429;50.958;3.592;2023-12-14T01:05:10;81.57;;;39.13;;
54167;SDS011;68429;50.958;3.592;2023-12-14T01:07:35;71.50;;;35.75;;
54167;SDS011;68429;50.958;3.592;2023-12-14T01:10:02;69.20;;;36.03;;
54167;SDS011;68429;50.958;3.592;2023-12-14T01:12:28;64.28;;;32.90;;
54167;SDS011;68429;50.958;3.592;2023-12-14T01:14:53;59.05;;;30.20;;
54167;SDS011;68429;50.958;3.592;2023-12-14T01:17:19;50.40;;;30.70;;
54167;SDS011;68429;50.958;3.592;2023-12-14T01:19:45;51.53;;;28.30;;
54167;SDS011;68429;50.958;3.592;2023-12-14T01:22:10;46.08;;;26.50;;
54167;SDS011;68429;50.958;3.592;2023-12-14T01:24:36;44.97;;;27.15;;
54167;SDS011;68429;50.958;3.592;2023-12-14T01:27:02;42.25;;;26.27;;
54167;SDS011;68429;50.958;3.592;2023-12-14T01:29:27;42.08;;;26.45;;
54167;SDS011;68429;50.958;3.592;2023-12-14T01:31:53;44.95;;;24.92;;
54167;SDS011;68429;50.958;3.592;2023-12-14T01:34:19;41.17;;;25.42;;
54167;SDS011;68429;50.958;3.592;2023-12-14T01:36:44;34.90;;;22.20;;
54167;SDS011;68429;50.958;3.592;2023-12-14T01:39:10;34.90;;;22.15;;
54167;SDS011;68429;50.958;3.592;2023-12-14T01:41:36;31.35;;;21.88;;
54167;SDS011;68429;50.958;3.592;2023-12-14T01:44:01;36.38;;;21.67;;
54167;SDS011;68429;50.958;3.592;2023-12-14T01:46:27;33.65;;;21.45;;
54167;SDS011;68429;50.958;3.592;2023-12-14T01:48:53;36.88;;;22.33;;
54167;SDS011;68429;50.958;3.592;2023-12-14T01:51:18;36.85;;;23.05;;
54167;SDS011;68429;50.958;3.592;2023-12-14T01:53:44;31.25;;;21.85;;
54167;SDS011;68429;50.958;3.592;2023-12-14T01:56:10;34.60;;;22.73;;
54167;SDS011;68429;50.958;3.592;2023-12-14T01:58:35;27.17;;;20.60;;
54167;SDS011;68429;50.958;3.592;2023-12-14T02:03:32;20.95;;;16.88;;
54167;SDS011;68429;50.958;3.592;2023-12-14T02:05:58;20.15;;;16.05;;
54167;SDS011;68429;50.958;3.592;2023-12-14T02:08:24;18.58;;;15.35;;
54167;SDS011;68429;50.958;3.592;2023-12-14T02:10:50;16.35;;;14.20;;
54167;SDS011;68429;50.958;3.592;2023-12-14T02:13:15;16.63;;;13.13;;
54167;SDS011;68429;50.958;3.592;2023-12-14T02:15:41;15.95;;;13.07;;
54167;SDS011;68429;50.958;3.592;2023-12-14T02:18:07;17.83;;;13.77;;
54167;SDS011;68429;50.958;3.592;2023-12-14T02:20:33;15.88;;;13.35;;
54167;SDS011;68429;50.958;3.592;2023-12-14T02:22:58;20.30;;;15.57;;
54167;SDS011;68429;50.958;3.592;2023-12-14T02:25:24;21.63;;;12.90;;
54167;SDS011;68429;50.958;3.592;2023-12-14T02:27:50;15.95;;;12.77;;
54167;SDS011;68429;50.958;3.592;2023-12-14T02:30:17;15.15;;;13.55;;
54167;SDS011;68429;50.958;3.592;2023-12-14T02:32:43;19.17;;;13.35;;
54167;SDS011;68429;50.958;3.592;2023-12-14T02:35:09;18.65;;;14.32;;
54167;SDS011;68429;50.958;3.592;2023-12-14T02:37:35;17.52;;;13.75;;
54167;SDS011;68429;50.958;3.592;2023-12-14T02:40:07;15.52;;;13.20;;
54167;SDS011;68429;50.958;3.592;2023-12-14T02:42:33;18.77;;;13.75;;
54167;SDS011;68429;50.958;3.592;2023-12-14T02:44:59;18.17;;;12.57;;
54167;SDS011;68429;50.958;3.592;2023-12-14T02:47:26;15.02;;;12.25;;
54167;SDS011;68429;50.958;3.592;2023-12-14T02:49:53;15.38;;;12.05;;
54167;SDS011;68429;50.958;3.592;2023-12-14T02:52:18;14.25;;;10.20;;
54167;SDS011;68429;50.958;3.592;2023-12-14T02:54:44;14.18;;;10.30;;
54167;SDS011;68429;50.958;3.592;2023-12-14T02:57:10;13.63;;;9.85;;
54167;SDS011;68429;50.958;3.592;2023-12-14T02:59:35;17.05;;;9.43;;
54167;SDS011;68429;50.958;3.592;2023-12-14T03:02:01;13.07;;;9.98;;
54167;SDS011;68429;50.958;3.592;2023-12-14T03:04:26;14.25;;;10.63;;
54167;SDS011;68429;50.958;3.592;2023-12-14T03:06:52;15.80;;;9.25;;
54167;SDS011;68429;50.958;3.592;2023-12-14T03:09:19;10.40;;;8.23;;
54167;SDS011;68429;50.958;3.592;2023-12-14T03:11:45;15.73;;;7.88;;
54167;SDS011;68429;50.958;3.592;2023-12-14T03:14:11;16.85;;;8.55;;
54167;SDS011;68429;50.958;3.592;2023-12-14T03:16:36;12.98;;;7.13;;
54167;SDS011;68429;50.958;3.592;2023-12-14T03:19:02;11.18;;;7.07;;
54167;SDS011;68429;50.958;3.592;2023-12-14T03:21:28;16.10;;;6.82;;
54167;SDS011;68429;50.958;3.592;2023-12-14T03:23:54;12.90;;;7.13;;
54167;SDS011;68429;50.958;3.592;2023-12-14T03:26:19;10.30;;;6.65;;
54167;SDS011;68429;50.958;3.592;2023-12-14T03:28:45;12.10;;;6.20;;
54167;SDS011;68429;50.958;3.592;2023-12-14T03:31:11;15.05;;;6.60;;
54167;SDS011;68429;50.958;3.592;2023-12-14T03:33:38;13.90;;;6.20;;
54167;SDS011;68429;50.958;3.592;2023-12-14T03:36:04;14.15;;;6.78;;
54167;SDS011;68429;50.958;3.592;2023-12-14T03:38:31;11.50;;;5.82;;
54167;SDS011;68429;50.958;3.592;2023-12-14T03:40:57;9.23;;;6.40;;
54167;SDS011;68429;50.958;3.592;2023-12-14T03:43:22;7.97;;;5.70;;
54167;SDS011;68429;50.958;3.592;2023-12-14T03:45:48;11.15;;;5.70;;
54167;SDS011;68429;50.958;3.592;2023-12-14T03:48:14;14.40;;;6.13;;
54167;SDS011;68429;50.958;3.592;2023-12-14T03:50:39;12.27;;;6.55;;
54167;SDS011;68429;50.958;3.592;2023-12-14T03:53:05;10.00;;;6.72;;
54167;SDS011;68429;50.958;3.592;2023-12-14T03:55:31;14.25;;;6.47;;
54167;SDS011;68429;50.958;3.592;2023-12-14T03:57:57;12.82;;;6.80;;
54167;SDS011;68429;50.958;3.592;2023-12-14T04:00:23;7.97;;;5.95;;
54167;SDS011;68429;50.958;3.592;2023-12-14T04:02:49;10.77;;;6.43;;
54167;SDS011;68429;50.958;3.592;2023-12-14T04:05:14;11.27;;;7.03;;
54167;SDS011;68429;50.958;3.592;2023-12-14T04:07:40;11.00;;;5.93;;
54167;SDS011;68429;50.958;3.592;2023-12-14T04:12:33;10.48;;;6.18;;
54167;SDS011;68429;50.958;3.592;2023-12-14T04:15:00;17.95;;;6.50;;
54167;SDS011;68429;50.958;3.592;2023-12-14T04:17:26;14.30;;;6.47;;
54167;SDS011;68429;50.958;3.592;2023-12-14T04:19:51;16.55;;;6.88;;
54167;SDS011;68429;50.958;3.592;2023-12-14T04:22:17;10.73;;;6.68;;
54167;SDS011;68429;50.958;3.592;2023-12-14T04:24:43;14.48;;;6.53;;
54167;SDS011;68429;50.958;3.592;2023-12-14T04:27:08;11.57;;;6.53;;
54167;SDS011;68429;50.958;3.592;2023-12-14T04:29:34;11.20;;;6.75;;
54167;SDS011;68429;50.958;3.592;2023-12-14T04:31:59;14.85;;;6.68;;
54167;SDS011;68429;50.958;3.592;2023-12-14T04:34:25;19.10;;;6.53;;
54167;SDS011;68429;50.958;3.592;2023-12-14T04:36:51;11.05;;;6.15;;
54167;SDS011;68429;50.958;3.592;2023-12-14T04:39:17;10.38;;;5.95;;
54167;SDS011;68429;50.958;3.592;2023-12-14T04:41:43;10.50;;;5.85;;
54167;SDS011;68429;50.958;3.592;2023-12-14T04:44:09;15.25;;;6.43;;
54167;SDS011;68429;50.958;3.592;2023-12-14T04:46:35;14.23;;;6.70;;
54167;SDS011;68429;50.958;3.592;2023-12-14T04:49:01;16.40;;;6.38;;
54167;SDS011;68429;50.958;3.592;2023-12-14T04:51:27;15.20;;;6.63;;
54167;SDS011;68429;50.958;3.592;2023-12-14T04:53:52;18.30;;;6.65;;
54167;SDS011;68429;50.958;3.592;2023-12-14T04:56:18;14.27;;;6.88;;
54167;SDS011;68429;50.958;3.592;2023-12-14T04:58:44;11.68;;;6.85;;
54167;SDS011;68429;50.958;3.592;2023-12-14T05:01:11;16.08;;;7.10;;
54167;SDS011;68429;50.958;3.592;2023-12-14T05:03:37;14.98;;;7.70;;
54167;SDS011;68429;50.958;3.592;2023-12-14T05:06:03;26.75;;;7.57;;
54167;SDS011;68429;50.958;3.592;2023-12-14T05:08:28;16.88;;;7.75;;
54167;SDS011;68429;50.958;3.592;2023-12-14T05:10:54;17.02;;;8.10;;
54167;SDS011;68429;50.958;3.592;2023-12-14T05:13:20;21.58;;;9.35;;
54167;SDS011;68429;50.958;3.592;2023-12-14T05:15:45;19.60;;;8.10;;
54167;SDS011;68429;50.958;3.592;2023-12-14T05:18:11;22.05;;;8.65;;
54167;SDS011;68429;50.958;3.592;2023-12-14T05:20:36;15.25;;;5.28;;
54167;SDS011;68429;50.958;3.592;2023-12-14T05:23:02;16.38;;;7.35;;
54167;SDS011;68429;50.958;3.592;2023-12-14T05:25:28;17.73;;;8.18;;
54167;SDS011;68429;50.958;3.592;2023-12-14T05:27:53;19.00;;;8.60;;
54167;SDS011;68429;50.958;3.592;2023-12-14T05:30:19;15.75;;;7.03;;
54167;SDS011;68429;50.958;3.592;2023-12-14T05:32:45;14.13;;;8.25;;
54167;SDS011;68429;50.958;3.592;2023-12-14T05:35:11;19.17;;;7.88;;
54167;SDS011;68429;50.958;3.592;2023-12-14T05:37:38;12.75;;;7.18;;
54167;SDS011;68429;50.958;3.592;2023-12-14T05:40:04;13.13;;;7.57;;
54167;SDS011;68429;50.958;3.592;2023-12-14T05:42:31;18.05;;;7.53;;
54167;SDS011;68429;50.958;3.592;2023-12-14T05:44:56;13.05;;;6.18;;
54167;SDS011;68429;50.958;3.592;2023-12-14T05:47:22;11.93;;;6.05;;
54167;SDS011;68429;50.958;3.592;2023-12-14T05:49:47;10.60;;;6.35;;
54167;SDS011;68429;50.958;3.592;2023-12-14T05:52:13;14.00;;;6.50;;
54167;SDS011;68429;50.958;3.592;2023-12-14T05:54:39;19.58;;;6.43;;
54167;SDS011;68429;50.958;3.592;2023-12-14T05:57:05;12.77;;;6.75;;
54167;SDS011;68429;50.958;3.592;2023-12-14T05:59:31;11.65;;;5.47;;
54167;SDS011;68429;50.958;3.592;2023-12-14T06:01:57;14.63;;;6.30;;
54167;SDS011;68429;50.958;3.592;2023-12-14T06:04:23;10.45;;;5.45;;
54167;SDS011;68429;50.958;3.592;2023-12-14T06:06:49;22.05;;;6.30;;
54167;SDS011;68429;50.958;3.592;2023-12-14T06:09:15;11.05;;;6.22;;
54167;SDS011;68429;50.958;3.592;2023-12-14T06:11:42;10.75;;;6.13;;
54167;SDS011;68429;50.958;3.592;2023-12-14T06:14:08;10.98;;;6.57;;
54167;SDS011;68429;50.958;3.592;2023-12-14T06:16:34;12.18;;;6.75;;
54167;SDS011;68429;50.958;3.592;2023-12-14T06:18:59;17.42;;;6.80;;
54167;SDS011;68429;50.958;3.592;2023-12-14T06:21:25;14.65;;;6.78;;
54167;SDS011;68429;50.958;3.592;2023-12-14T06:23:53;13.00;;;7.03;;
54167;SDS011;68429;50.958;3.592;2023-12-14T06:26:19;13.40;;;6.93;;
54167;SDS011;68429;50.958;3.592;2023-12-14T06:28:45;14.48;;;6.55;;
54167;SDS011;68429;50.958;3.592;2023-12-14T06:31:14;17.45;;;7.22;;
54167;SDS011;68429;50.958;3.592;2023-12-14T06:33:40;17.55;;;6.65;;
54167;SDS011;68429;50.958;3.592;2023-12-14T06:36:06;15.18;;;6.80;;
54167;SDS011;68429;50.958;3.592;2023-12-14T06:38:33;18.83;;;6.93;;
54167;SDS011;68429;50.958;3.592;2023-12-14T06:40:58;18.08;;;7.60;;
54167;SDS011;68429;50.958;3.592;2023-12-14T06:43:27;15.77;;;6.78;;
54167;SDS011;68429;50.958;3.592;2023-12-14T06:45:52;13.82;;;7.38;;
54167;SDS011;68429;50.958;3.592;2023-12-14T06:48:18;13.00;;;6.78;;
54167;SDS011;68429;50.958;3.592;2023-12-14T06:50:44;16.33;;;7.30;;
54167;SDS011;68429;50.958;3.592;2023-12-14T06:53:10;12.82;;;6.88;;
54167;SDS011;68429;50.958;3.592;2023-12-14T06:55:36;17.77;;;6.97;;
54167;SDS011;68429;50.958;3.592;2023-12-14T06:58:02;13.68;;;6.32;;
54167;SDS011;68429;50.958;3.592;2023-12-14T07:00:27;21.80;;;6.82;;
54167;SDS011;68429;50.958;3.592;2023-12-14T07:02:54;12.27;;;6.60;;
54167;SDS011;68429;50.958;3.592;2023-12-14T07:05:20;18.50;;;6.55;;
54167;SDS011;68429;50.958;3.592;2023-12-14T07:07:46;22.70;;;6.10;;
54167;SDS011;68429;50.958;3.592;2023-12-14T07:10:12;12.48;;;6.53;;
54167;SDS011;68429;50.958;3.592;2023-12-14T07:12:37;17.65;;;6.40;;
54167;SDS011;68429;50.958;3.592;2023-12-14T07:15:03;17.55;;;7.10;;
54167;SDS011;68429;50.958;3.592;2023-12-14T07:17:30;19.08;;;6.65;;
54167;SDS011;68429;50.958;3.592;2023-12-14T07:19:55;21.90;;;7.15;;
54167;SDS011;68429;50.958;3.592;2023-12-14T07:22:21;17.83;;;6.22;;
54167;SDS011;68429;50.958;3.592;2023-12-14T07:24:47;17.50;;;6.20;;
54167;SDS011;68429;50.958;3.592;2023-12-14T07:27:12;13.48;;;6.82;;
54167;SDS011;68429;50.958;3.592;2023-12-14T07:29:38;20.15;;;6.93;;
54167;SDS011;68429;50.958;3.592;2023-12-14T07:32:03;13.75;;;5.88;;
54167;SDS011;68429;50.958;3.592;2023-12-14T07:34:29;18.38;;;6.60;;
54167;SDS011;68429;50.958;3.592;2023-12-14T07:36:55;18.88;;;6.65;;
54167;SDS011;68429;50.958;3.592;2023-12-14T07:39:21;18.65;;;7.30;;
54167;SDS011;68429;50.958;3.592;2023-12-14T07:41:47;19.90;;;6.82;;
54167;SDS011;68429;50.958;3.592;2023-12-14T07:44:12;16.80;;;7.03;;
54167;SDS011;68429;50.958;3.592;2023-12-14T07:46:38;17.55;;;7.85;;
54167;SDS011;68429;50.958;3.592;2023-12-14T07:49:06;17.48;;;7.22;;
54167;SDS011;68429;50.958;3.592;2023-12-14T07:51:32;18.45;;;7.60;;
54167;SDS011;68429;50.958;3.592;2023-12-14T07:53:58;15.15;;;6.97;;
54167;SDS011;68429;50.958;3.592;2023-12-14T07:56:23;20.00;;;7.80;;
54167;SDS011;68429;50.958;3.592;2023-12-14T07:58:52;15.18;;;6.82;;
54167;SDS011;68429;50.958;3.592;2023-12-14T08:01:18;14.98;;;6.78;;
54167;SDS011;68429;50.958;3.592;2023-12-14T08:03:44;15.43;;;6.70;;
54167;SDS011;68429;50.958;3.592;2023-12-14T08:06:11;16.88;;;7.38;;
54167;SDS011;68429;50.958;3.592;2023-12-14T08:08:36;17.52;;;7.22;;
54167;SDS011;68429;50.958;3.592;2023-12-14T08:11:03;18.67;;;8.18;;
54167;SDS011;68429;50.958;3.592;2023-12-14T08:13:29;16.48;;;7.03;;
54167;SDS011;68429;50.958;3.592;2023-12-14T08:15:55;19.23;;;8.32;;
54167;SDS011;68429;50.958;3.592;2023-12-14T08:18:21;21.95;;;7.90;;
54167;SDS011;68429;50.958;3.592;2023-12-14T08:20:46;24.13;;;8.63;;
54167;SDS011;68429;50.958;3.592;2023-12-14T08:23:12;12.35;;;6.70;;
54167;SDS011;68429;50.958;3.592;2023-12-14T08:25:38;15.85;;;7.35;;
54167;SDS011;68429;50.958;3.592;2023-12-14T08:28:04;16.65;;;6.65;;
54167;SDS011;68429;50.958;3.592;2023-12-14T08:30:30;17.02;;;7.35;;
54167;SDS011;68429;50.958;3.592;2023-12-14T08:32:55;16.00;;;7.25;;
54167;SDS011;68429;50.958;3.592;2023-12-14T08:35:21;14.77;;;7.20;;
54167;SDS011;68429;50.958;3.592;2023-12-14T08:37:46;16.40;;;6.97;;
54167;SDS011;68429;50.958;3.592;2023-12-14T08:40:12;13.80;;;6.55;;
54167;SDS011;68429;50.958;3.592;2023-12-14T08:42:38;12.63;;;6.43;;
54167;SDS011;68429;50.958;3.592;2023-12-14T08:45:03;17.05;;;6.70;;
54167;SDS011;68429;50.958;3.592;2023-12-14T08:47:30;18.17;;;6.95;;
54167;SDS011;68429;50.958;3.592;2023-12-14T08:49:55;12.50;;;6.50;;
54167;SDS011;68429;50.958;3.592;2023-12-14T08:52:21;11.07;;;6.57;;
54167;SDS011;68429;50.958;3.592;2023-12-14T08:54:47;11.77;;;6.53;;
54167;SDS011;68429;50.958;3.592;2023-12-14T08:57:12;17.08;;;6.97;;
54167;SDS011;68429;50.958;3.592;2023-12-14T08:59:38;16.42;;;7.15;;
54167;SDS011;68429;50.958;3.592;2023-12-14T09:02:04;13.07;;;7.10;;
54167;SDS011;68429;50.958;3.592;2023-12-14T09:04:30;11.57;;;6.88;;
54167;SDS011;68429;50.958;3.592;2023-12-14T09:06:55;17.50;;;7.60;;
54167;SDS011;68429;50.958;3.592;2023-12-14T09:09:21;15.35;;;7.47;;
54167;SDS011;68429;50.958;3.592;2023-12-14T09:11:46;21.17;;;8.50;;
54167;SDS011;68429;50.958;3.592;2023-12-14T09:14:12;17.05;;;8.00;;
54167;SDS011;68429;50.958;3.592;2023-12-14T09:16:38;18.73;;;7.82;;
54167;SDS011;68429;50.958;3.592;2023-12-14T09:19:03;15.45;;;8.32;;
54167;SDS011;68429;50.958;3.592;2023-12-14T09:21:29;17.88;;;7.75;;
54167;SDS011;68429;50.958;3.592;2023-12-14T09:23:55;17.55;;;7.53;;
54167;SDS011;68429;50.958;3.592;2023-12-14T09:26:20;13.98;;;7.80;;
54167;SDS011;68429;50.958;3.592;2023-12-14T09:28:46;12.43;;;6.95;;
54167;SDS011;68429;50.958;3.592;2023-12-14T09:31:12;18.17;;;7.13;;
54167;SDS011;68429;50.958;3.592;2023-12-14T09:33:37;14.98;;;7.60;;
54167;SDS011;68429;50.958;3.592;2023-12-14T09:36:04;15.73;;;6.45;;
54167;SDS011;68429;50.958;3.592;2023-12-14T09:38:30;15.30;;;7.28;;
54167;SDS011;68429;50.958;3.592;2023-12-14T09:40:56;16.17;;;7.05;;
54167;SDS011;68429;50.958;3.592;2023-12-14T09:43:21;14.60;;;7.25;;
54167;SDS011;68429;50.958;3.592;2023-12-14T09:45:48;15.48;;;7.10;;
54167;SDS011;68429;50.958;3.592;2023-12-14T09:48:15;19.95;;;8.07;;
54167;SDS011;68429;50.958;3.592;2023-12-14T09:50:41;17.50;;;8.32;;
54167;SDS011;68429;50.958;3.592;2023-12-14T09:53:10;24.47;;;8.53;;
54167;SDS011;68429;50.958;3.592;2023-12-14T09:55:35;18.33;;;8.18;;
54167;SDS011;68429;50.958;3.592;2023-12-14T09:58:01;16.85;;;8.13;;
54167;SDS011;68429;50.958;3.592;2023-12-14T10:00:38;14.90;;;8.00;;
54167;SDS011;68429;50.958;3.592;2023-12-14T10:03:17;15.35;;;7.63;;
54167;SDS011;68429;50.958;3.592;2023-12-14T10:05:43;18.58;;;8.90;;
54167;SDS011;68429;50.958;3.592;2023-12-14T10:08:09;23.48;;;8.85;;
54167;SDS011;68429;50.958;3.592;2023-12-14T10:10:34;18.80;;;9.25;;
54167;SDS011;68429;50.958;3.592;2023-12-14T10:13:00;18.58;;;10.25;;
54167;SDS011;68429;50.958;3.592;2023-12-14T10:15:26;23.00;;;9.90;;
54167;SDS011;68429;50.958;3.592;2023-12-14T10:17:53;15.95;;;8.90;;
54167;SDS011;68429;50.958;3.592;2023-12-14T10:20:20;21.70;;;9.10;;
54167;SDS011;68429;50.958;3.592;2023-12-14T10:22:51;15.52;;;8.57;;
54167;SDS011;68429;50.958;3.592;2023-12-14T10:25:18;18.27;;;7.82;;
54167;SDS011;68429;50.958;3.592;2023-12-14T10:27:47;20.40;;;7.75;;
54167;SDS011;68429;50.958;3.592;2023-12-14T10:30:16;12.85;;;7.55;;
54167;SDS011;68429;50.958;3.592;2023-12-14T10:32:41;13.07;;;7.72;;
54167;SDS011;68429;50.958;3.592;2023-12-14T10:35:07;17.98;;;7.53;;
54167;SDS011;68429;50.958;3.592;2023-12-14T10:37:35;17.58;;;8.52;;
54167;SDS011;68429;50.958;3.592;2023-12-14T10:40:03;17.08;;;8.73;;
54167;SDS011;68429;50.958;3.592;2023-12-14T10:42:35;21.20;;;8.38;;
54167;SDS011;68429;50.958;3.592;2023-12-14T10:45:02;25.10;;;9.48;;
54167;SDS011;68429;50.958;3.592;2023-12-14T10:47:29;17.48;;;9.02;;
54167;SDS011;68429;50.958;3.592;2023-12-14T10:49:55;17.42;;;9.35;;
54167;SDS011;68429;50.958;3.592;2023-12-14T10:54:56;20.85;;;10.27;;
54167;SDS011;68429;50.958;3.592;2023-12-14T10:57:27;22.83;;;10.50;;
54167;SDS011;68429;50.958;3.592;2023-12-14T11:00:00;22.98;;;10.30;;
54167;SDS011;68429;50.958;3.592;2023-12-14T11:02:27;18.75;;;9.32;;
54167;SDS011;68429;50.958;3.592;2023-12-14T11:05:11;20.25;;;10.02;;
54167;SDS011;68429;50.958;3.592;2023-12-14T11:10:28;22.23;;;9.55;;
54167;SDS011;68429;50.958;3.592;2023-12-14T11:13:09;14.20;;;8.95;;
54167;SDS011;68429;50.958;3.592;2023-12-14T11:15:39;14.25;;;9.57;;
54167;SDS011;68429;50.958;3.592;2023-12-14T11:18:27;21.38;;;9.57;;
54167;SDS011;68429;50.958;3.592;2023-12-14T11:20:53;19.00;;;9.38;;
54167;SDS011;68429;50.958;3.592;2023-12-14T11:28:19;23.23;;;9.02;;
54167;SDS011;68429;50.958;3.592;2023-12-14T11:30:45;17.98;;;8.80;;
54167;SDS011;68429;50.958;3.592;2023-12-14T11:33:12;15.60;;;9.43;;
54167;SDS011;68429;50.958;3.592;2023-12-14T11:35:39;20.25;;;10.32;;
54167;SDS011;68429;50.958;3.592;2023-12-14T11:38:05;21.90;;;9.82;;
54167;SDS011;68429;50.958;3.592;2023-12-14T11:40:37;19.35;;;9.02;;
54167;SDS011;68429;50.958;3.592;2023-12-14T11:43:04;21.95;;;9.13;;
54167;SDS011;68429;50.958;3.592;2023-12-14T11:45:36;15.85;;;8.30;;
54167;SDS011;68429;50.958;3.592;2023-12-14T11:48:03;21.45;;;8.70;;
54167;SDS011;68429;50.958;3.592;2023-12-14T11:50:35;15.45;;;7.80;;
54167;SDS011;68429;50.958;3.592;2023-12-14T11:53:02;15.48;;;7.35;;
54167;SDS011;68429;50.958;3.592;2023-12-14T11:55:32;14.93;;;7.50;;
54167;SDS011;68429;50.958;3.592;2023-12-14T11:57:59;14.15;;;6.88;;
54167;SDS011;68429;50.958;3.592;2023-12-14T12:00:26;17.88;;;7.93;;
54167;SDS011;68429;50.958;3.592;2023-12-14T12:05:48;16.30;;;8.02;;
54167;SDS011;68429;50.958;3.592;2023-12-14T12:08:16;19.73;;;8.38;;
54167;SDS011;68429;50.958;3.592;2023-12-14T12:10:44;16.77;;;7.33;;
54167;SDS011;68429;50.958;3.592;2023-12-14T12:13:11;16.63;;;7.72;;
54167;SDS011;68429;50.958;3.592;2023-12-14T12:15:44;18.95;;;7.75;;
54167;SDS011;68429;50.958;3.592;2023-12-14T12:18:11;17.95;;;8.23;;
54167;SDS011;68429;50.958;3.592;2023-12-14T12:20:41;18.90;;;7.65;;
54167;SDS011;68429;50.958;3.592;2023-12-14T12:23:07;14.55;;;7.75;;
54167;SDS011;68429;50.958;3.592;2023-12-14T12:25:33;16.15;;;7.15;;
54167;SDS011;68429;50.958;3.592;2023-12-14T12:28:00;11.00;;;5.78;;
54167;SDS011;68429;50.958;3.592;2023-12-14T12:30:26;13.68;;;6.10;;
54167;SDS011;68429;50.958;3.592;2023-12-14T12:32:52;12.25;;;5.20;;
54167;SDS011;68429;50.958;3.592;2023-12-14T12:35:20;14.70;;;5.85;;
54167;SDS011;68429;50.958;3.592;2023-12-14T12:37:46;18.08;;;5.50;;
54167;SDS011;68429;50.958;3.592;2023-12-14T12:40:18;11.13;;;4.97;;
54167;SDS011;68429;50.958;3.592;2023-12-14T12:42:44;12.30;;;5.05;;
54167;SDS011;68429;50.958;3.592;2023-12-14T12:45:13;15.48;;;4.60;;
54167;SDS011;68429;50.958;3.592;2023-12-14T12:47:39;9.95;;;4.00;;
54167;SDS011;68429;50.958;3.592;2023-12-14T12:50:05;16.17;;;4.65;;
54167;SDS011;68429;50.958;3.592;2023-12-14T12:52:31;10.63;;;2.88;;
54167;SDS011;68429;50.958;3.592;2023-12-14T12:54:57;11.43;;;2.75;;
54167;SDS011;68429;50.958;3.592;2023-12-14T12:57:23;8.70;;;2.15;;
54167;SDS011;68429;50.958;3.592;2023-12-14T12:59:48;5.78;;;1.88;;
54167;SDS011;68429;50.958;3.592;2023-12-14T13:02:14;11.68;;;2.53;;
54167;SDS011;68429;50.958;3.592;2023-12-14T13:04:40;9.85;;;3.03;;
54167;SDS011;68429;50.958;3.592;2023-12-14T13:07:05;9.68;;;2.30;;
54167;SDS011;68429;50.958;3.592;2023-12-14T13:09:31;5.50;;;2.40;;
54167;SDS011;68429;50.958;3.592;2023-12-14T13:11:57;6.55;;;2.28;;
54167;SDS011;68429;50.958;3.592;2023-12-14T13:14:22;5.47;;;2.10;;
54167;SDS011;68429;50.958;3.592;2023-12-14T13:16:48;11.52;;;2.13;;
54167;SDS011;68429;50.958;3.592;2023-12-14T13:19:14;7.70;;;2.20;;
54167;SDS011;68429;50.958;3.592;2023-12-14T13:21:40;8.07;;;2.20;;
54167;SDS011;68429;50.958;3.592;2023-12-14T13:24:06;7.32;;;2.30;;
54167;SDS011;68429;50.958;3.592;2023-12-14T13:26:32;10.82;;;2.38;;
54167;SDS011;68429;50.958;3.592;2023-12-14T13:28:58;11.52;;;2.47;;
54167;SDS011;68429;50.958;3.592;2023-12-14T13:31:24;7.13;;;2.13;;
54167;SDS011;68429;50.958;3.592;2023-12-14T13:33:50;4.43;;;2.10;;
54167;SDS011;68429;50.958;3.592;2023-12-14T13:36:15;8.65;;;2.10;;
54167;SDS011;68429;50.958;3.592;2023-12-14T13:38:41;7.82;;;2.13;;
54167;SDS011;68429;50.958;3.592;2023-12-14T13:41:08;6.82;;;2.17;;
54167;SDS011;68429;50.958;3.592;2023-12-14T13:43:34;6.30;;;2.10;;
54167;SDS011;68429;50.958;3.592;2023-12-14T13:45:59;9.10;;;2.88;;
54167;SDS011;68429;50.958;3.592;2023-12-14T13:48:25;6.32;;;1.88;;
54167;SDS011;68429;50.958;3.592;2023-12-14T13:50:52;11.13;;;2.08;;
54167;SDS011;68429;50.958;3.592;2023-12-14T13:53:18;11.60;;;2.10;;
54167;SDS011;68429;50.958;3.592;2023-12-14T13:55:44;10.20;;;1.65;;
54167;SDS011;68429;50.958;3.592;2023-12-14T13:58:11;9.68;;;2.28;;
54167;SDS011;68429;50.958;3.592;2023-12-14T14:00:37;10.57;;;2.22;;
54167;SDS011;68429;50.958;3.592;2023-12-14T14:03:03;7.28;;;1.63;;
54167;SDS011;68429;50.958;3.592;2023-12-14T14:05:30;6.43;;;1.67;;
54167;SDS011;68429;50.958;3.592;2023-12-14T14:07:56;5.53;;;1.70;;
54167;SDS011;68429;50.958;3.592;2023-12-14T14:10:22;14.10;;;2.55;;
54167;SDS011;68429;50.958;3.592;2023-12-14T14:12:48;6.18;;;2.15;;
54167;SDS011;68429;50.958;3.592;2023-12-14T14:15:15;9.18;;;2.10;;
54167;SDS011;68429;50.958;3.592;2023-12-14T14:17:41;8.07;;;2.22;;
54167;SDS011;68429;50.958;3.592;2023-12-14T14:20:07;8.85;;;2.70;;
54167;SDS011;68429;50.958;3.592;2023-12-14T14:22:35;9.32;;;2.30;;
54167;SDS011;68429;50.958;3.592;2023-12-14T14:25:01;8.75;;;2.42;;
54167;SDS011;68429;50.958;3.592;2023-12-14T14:27:27;7.90;;;2.78;;
54167;SDS011;68429;50.958;3.592;2023-12-14T14:29:53;10.40;;;2.30;;
54167;SDS011;68429;50.958;3.592;2023-12-14T14:32:21;11.43;;;2.13;;
54167;SDS011;68429;50.958;3.592;2023-12-14T14:34:47;11.25;;;2.35;;
54167;SDS011;68429;50.958;3.592;2023-12-14T14:37:12;15.18;;;2.45;;
54167;SDS011;68429;50.958;3.592;2023-12-14T14:39:38;10.75;;;3.05;;
54167;SDS011;68429;50.958;3.592;2023-12-14T14:44:34;11.73;;;2.58;;
54167;SDS011;68429;50.958;3.592;2023-12-14T14:46:59;13.95;;;3.00;;
54167;SDS011;68429;50.958;3.592;2023-12-14T14:49:25;6.03;;;2.08;;